sensor_id;sensor_type;location;lat;lon;timestamp;temperature;humidity
11264;DHT22;5689;48.798;9.070;2023-06-14T00:02:09;15.20;72.30
11264;DHT22;5689;48.798;9.070;2023-06-14T00:04:37;15.20;72.10
11264;DHT22;5689;48.798;9.070;2023-06-14T00:07:08;15.20;72.70
11264;DHT22;5689;48.798;9.070;2023-06-14T00:09:37;15.20;72.60
11264;DHT22;5689;48.798;9.070;2023-06-14T00:12:07;15.30;72.10
11264;DHT22;5689;48.798;9.070;2023-06-14T00:14:36;15.30;71.40
11264;DHT22;5689;48.798;9.070;2023-06-14T00:17:04;15.20;70.80
11264;DHT22;5689;48.798;9.070;2023-06-14T00:19:33;15.10;70.90
11264;DHT22;5689;48.798;9.070;2023-06-14T00:22:03;15.00;71.30
11264;DHT22;5689;48.798;9.070;2023-06-14T00:24:31;15.00;71.70
11264;DHT22;5689;48.798;9.070;2023-06-14T00:26:59;15.00;71.10
11264;DHT22;5689;48.798;9.070;2023-06-14T00:29:30;15.10;71.70
11264;DHT22;5689;48.798;9.070;2023-06-14T00:31:58;15.10;71.60
11264;DHT22;5689;48.798;9.070;2023-06-14T00:34:26;15.00;71.80
11264;DHT22;5689;48.798;9.070;2023-06-14T00:36:54;14.90;73.00
11264;DHT22;5689;48.798;9.070;2023-06-14T00:39:22;14.70;74.60
11264;DHT22;5689;48.798;9.070;2023-06-14T00:41:50;14.60;74.80
11264;DHT22;5689;48.798;9.070;2023-06-14T00:44:19;14.50;74.30
11264;DHT22;5689;48.798;9.070;2023-06-14T00:46:49;14.30;74.40
11264;DHT22;5689;48.798;9.070;2023-06-14T00:49:18;14.30;74.60
11264;DHT22;5689;48.798;9.070;2023-06-14T00:51:47;14.40;74.80
11264;DHT22;5689;48.798;9.070;2023-06-14T00:54:15;14.30;74.70
11264;DHT22;5689;48.798;9.070;2023-06-14T00:56:44;14.20;75.30
11264;DHT22;5689;48.798;9.070;2023-06-14T00:59:12;14.10;75.60
11264;DHT22;5689;48.798;9.070;2023-06-14T01:01:42;14.10;76.20
11264;DHT22;5689;48.798;9.070;2023-06-14T01:04:11;14.00;76.40
11264;DHT22;5689;48.798;9.070;2023-06-14T01:06:45;14.10;76.70
11264;DHT22;5689;48.798;9.070;2023-06-14T01:09:21;14.20;76.40
11264;DHT22;5689;48.798;9.070;2023-06-14T01:11:59;14.20;76.10
11264;DHT22;5689;48.798;9.070;2023-06-14T01:14:29;14.20;76.10
11264;DHT22;5689;48.798;9.070;2023-06-14T01:16:58;14.10;75.20
11264;DHT22;5689;48.798;9.070;2023-06-14T01:19:28;14.10;75.60
11264;DHT22;5689;48.798;9.070;2023-06-14T01:22:00;14.30;75.70
11264;DHT22;5689;48.798;9.070;2023-06-14T01:24:29;14.20;75.00
11264;DHT22;5689;48.798;9.070;2023-06-14T01:27:02;14.30;75.60
11264;DHT22;5689;48.798;9.070;2023-06-14T01:29:30;14.00;76.60
11264;DHT22;5689;48.798;9.070;2023-06-14T01:32:00;13.90;76.40
11264;DHT22;5689;48.798;9.070;2023-06-14T01:34:30;13.90;76.60
11264;DHT22;5689;48.798;9.070;2023-06-14T01:37:00;14.00;76.70
11264;DHT22;5689;48.798;9.070;2023-06-14T01:39:31;13.90;76.80
11264;DHT22;5689;48.798;9.070;2023-06-14T01:42:00;13.80;77.10
11264;DHT22;5689;48.798;9.070;2023-06-14T01:44:28;13.80;77.80
11264;DHT22;5689;48.798;9.070;2023-06-14T01:47:00;13.80;77.80
11264;DHT22;5689;48.798;9.070;2023-06-14T01:49:28;13.60;79.00
11264;DHT22;5689;48.798;9.070;2023-06-14T01:51:56;13.50;79.50
11264;DHT22;5689;48.798;9.070;2023-06-14T01:54:24;13.40;79.90
11264;DHT22;5689;48.798;9.070;2023-06-14T01:56:55;13.30;80.80
11264;DHT22;5689;48.798;9.070;2023-06-14T01:59:23;13.40;80.70
11264;DHT22;5689;48.798;9.070;2023-06-14T02:01:52;13.30;80.70
11264;DHT22;5689;48.798;9.070;2023-06-14T02:04:20;13.50;80.20
11264;DHT22;5689;48.798;9.070;2023-06-14T02:06:48;13.50;80.50
11264;DHT22;5689;48.798;9.070;2023-06-14T02:09:17;13.50;80.80
11264;DHT22;5689;48.798;9.070;2023-06-14T02:11:45;13.40;80.70
11264;DHT22;5689;48.798;9.070;2023-06-14T02:14:15;13.50;80.40
11264;DHT22;5689;48.798;9.070;2023-06-14T02:16:43;13.50;80.50
11264;DHT22;5689;48.798;9.070;2023-06-14T02:19:15;13.50;80.70
11264;DHT22;5689;48.798;9.070;2023-06-14T02:21:43;13.30;80.80
11264;DHT22;5689;48.798;9.070;2023-06-14T02:24:12;13.30;81.80
11264;DHT22;5689;48.798;9.070;2023-06-14T02:26:41;13.50;80.90
11264;DHT22;5689;48.798;9.070;2023-06-14T02:29:15;13.30;81.50
11264;DHT22;5689;48.798;9.070;2023-06-14T02:31:43;13.30;82.00
11264;DHT22;5689;48.798;9.070;2023-06-14T02:34:13;13.20;82.10
11264;DHT22;5689;48.798;9.070;2023-06-14T02:36:43;13.30;82.30
11264;DHT22;5689;48.798;9.070;2023-06-14T02:39:11;13.20;82.60
11264;DHT22;5689;48.798;9.070;2023-06-14T02:41:39;13.10;83.60
11264;DHT22;5689;48.798;9.070;2023-06-14T02:44:07;13.00;84.00
11264;DHT22;5689;48.798;9.070;2023-06-14T02:46:37;13.00;84.60
11264;DHT22;5689;48.798;9.070;2023-06-14T02:49:05;13.00;84.50
11264;DHT22;5689;48.798;9.070;2023-06-14T02:51:33;12.90;85.00
11264;DHT22;5689;48.798;9.070;2023-06-14T02:54:01;12.70;85.30
11264;DHT22;5689;48.798;9.070;2023-06-14T02:56:29;12.80;85.60
11264;DHT22;5689;48.798;9.070;2023-06-14T02:58:57;12.70;85.60
11264;DHT22;5689;48.798;9.070;2023-06-14T03:01:27;12.70;86.40
11264;DHT22;5689;48.798;9.070;2023-06-14T03:04:05;12.80;85.10
11264;DHT22;5689;48.798;9.070;2023-06-14T03:06:35;12.80;85.00
11264;DHT22;5689;48.798;9.070;2023-06-14T03:09:04;12.60;85.20
11264;DHT22;5689;48.798;9.070;2023-06-14T03:11:35;12.60;85.90
11264;DHT22;5689;48.798;9.070;2023-06-14T03:14:04;12.60;86.00
11264;DHT22;5689;48.798;9.070;2023-06-14T03:16:34;12.50;87.00
11264;DHT22;5689;48.798;9.070;2023-06-14T03:19:05;12.60;86.70
11264;DHT22;5689;48.798;9.070;2023-06-14T03:21:34;12.40;87.10
11264;DHT22;5689;48.798;9.070;2023-06-14T03:24:03;12.40;87.50
11264;DHT22;5689;48.798;9.070;2023-06-14T03:26:33;12.30;87.50
11264;DHT22;5689;48.798;9.070;2023-06-14T03:29:04;12.30;88.40
11264;DHT22;5689;48.798;9.070;2023-06-14T03:31:32;12.30;88.50
11264;DHT22;5689;48.798;9.070;2023-06-14T03:34:02;12.40;88.10
11264;DHT22;5689;48.798;9.070;2023-06-14T03:36:31;12.40;88.50
11264;DHT22;5689;48.798;9.070;2023-06-14T03:39:00;12.40;88.90
11264;DHT22;5689;48.798;9.070;2023-06-14T03:41:28;12.30;89.20
11264;DHT22;5689;48.798;9.070;2023-06-14T03:43:56;12.30;89.90
11264;DHT22;5689;48.798;9.070;2023-06-14T03:46:24;12.40;90.00
11264;DHT22;5689;48.798;9.070;2023-06-14T03:48:53;12.30;90.30
11264;DHT22;5689;48.798;9.070;2023-06-14T03:51:21;12.30;90.20
11264;DHT22;5689;48.798;9.070;2023-06-14T03:53:50;12.30;90.20
11264;DHT22;5689;48.798;9.070;2023-06-14T03:56:31;12.40;90.60
11264;DHT22;5689;48.798;9.070;2023-06-14T03:58:59;12.40;90.90
11264;DHT22;5689;48.798;9.070;2023-06-14T04:01:28;12.50;91.00
11264;DHT22;5689;48.798;9.070;2023-06-14T04:03:59;12.40;90.80
11264;DHT22;5689;48.798;9.070;2023-06-14T04:06:27;12.40;90.90
11264;DHT22;5689;48.798;9.070;2023-06-14T04:09:00;12.50;90.90
11264;DHT22;5689;48.798;9.070;2023-06-14T04:11:31;12.70;90.70
11264;DHT22;5689;48.798;9.070;2023-06-14T04:13:59;12.80;90.80
11264;DHT22;5689;48.798;9.070;2023-06-14T04:16:27;12.80;90.70
11264;DHT22;5689;48.798;9.070;2023-06-14T04:18:55;12.80;90.90
11264;DHT22;5689;48.798;9.070;2023-06-14T04:21:24;13.00;90.70
11264;DHT22;5689;48.798;9.070;2023-06-14T04:23:56;13.10;90.60
11264;DHT22;5689;48.798;9.070;2023-06-14T04:26:28;13.30;90.20
11264;DHT22;5689;48.798;9.070;2023-06-14T04:29:00;13.40;89.20
11264;DHT22;5689;48.798;9.070;2023-06-14T04:31:32;13.30;90.00
11264;DHT22;5689;48.798;9.070;2023-06-14T04:34:02;13.30;90.10
11264;DHT22;5689;48.798;9.070;2023-06-14T04:36:32;13.30;90.10
11264;DHT22;5689;48.798;9.070;2023-06-14T04:39:03;13.50;90.30
11264;DHT22;5689;48.798;9.070;2023-06-14T04:41:33;13.50;90.30
11264;DHT22;5689;48.798;9.070;2023-06-14T04:44:02;13.60;90.60
11264;DHT22;5689;48.798;9.070;2023-06-14T04:46:36;13.70;90.20
11264;DHT22;5689;48.798;9.070;2023-06-14T04:49:13;13.80;90.00
11264;DHT22;5689;48.798;9.070;2023-06-14T04:51:42;13.90;89.60
11264;DHT22;5689;48.798;9.070;2023-06-14T04:54:10;14.10;89.00
11264;DHT22;5689;48.798;9.070;2023-06-14T04:56:42;14.30;88.30
11264;DHT22;5689;48.798;9.070;2023-06-14T04:59:11;14.50;87.80
11264;DHT22;5689;48.798;9.070;2023-06-14T05:01:40;14.80;87.80
11264;DHT22;5689;48.798;9.070;2023-06-14T05:04:09;14.80;88.10
11264;DHT22;5689;48.798;9.070;2023-06-14T05:06:37;14.90;88.00
11264;DHT22;5689;48.798;9.070;2023-06-14T05:09:04;15.00;87.60
11264;DHT22;5689;48.798;9.070;2023-06-14T05:11:32;15.20;86.20
11264;DHT22;5689;48.798;9.070;2023-06-14T05:14:02;15.20;86.20
11264;DHT22;5689;48.798;9.070;2023-06-14T05:16:30;15.40;86.70
11264;DHT22;5689;48.798;9.070;2023-06-14T05:18:58;15.50;85.30
11264;DHT22;5689;48.798;9.070;2023-06-14T05:21:26;15.80;84.00
11264;DHT22;5689;48.798;9.070;2023-06-14T05:23:53;15.80;83.10
11264;DHT22;5689;48.798;9.070;2023-06-14T05:26:22;15.90;82.20
11264;DHT22;5689;48.798;9.070;2023-06-14T05:28:55;15.90;83.70
11264;DHT22;5689;48.798;9.070;2023-06-14T05:31:25;16.40;82.30
11264;DHT22;5689;48.798;9.070;2023-06-14T05:33:53;17.10;79.40
11264;DHT22;5689;48.798;9.070;2023-06-14T05:36:22;17.80;77.50
11264;DHT22;5689;48.798;9.070;2023-06-14T05:38:50;18.10;76.30
11264;DHT22;5689;48.798;9.070;2023-06-14T05:41:24;18.20;76.60
11264;DHT22;5689;48.798;9.070;2023-06-14T05:43:53;18.10;75.80
11264;DHT22;5689;48.798;9.070;2023-06-14T05:46:22;17.50;77.50
11264;DHT22;5689;48.798;9.070;2023-06-14T05:48:54;17.20;77.60
11264;DHT22;5689;48.798;9.070;2023-06-14T05:51:23;17.20;77.80
11264;DHT22;5689;48.798;9.070;2023-06-14T05:53:51;17.50;77.30
11264;DHT22;5689;48.798;9.070;2023-06-14T05:56:20;17.50;77.40
11264;DHT22;5689;48.798;9.070;2023-06-14T05:58:48;17.60;77.90
11264;DHT22;5689;48.798;9.070;2023-06-14T06:01:17;17.80;76.50
11264;DHT22;5689;48.798;9.070;2023-06-14T06:03:45;18.40;74.30
11264;DHT22;5689;48.798;9.070;2023-06-14T06:06:14;18.70;74.40
11264;DHT22;5689;48.798;9.070;2023-06-14T06:08:43;19.10;74.00
11264;DHT22;5689;48.798;9.070;2023-06-14T06:11:11;18.60;74.40
11264;DHT22;5689;48.798;9.070;2023-06-14T06:13:38;19.10;73.90
11264;DHT22;5689;48.798;9.070;2023-06-14T06:16:07;19.70;72.70
11264;DHT22;5689;48.798;9.070;2023-06-14T06:18:35;19.80;73.90
11264;DHT22;5689;48.798;9.070;2023-06-14T06:21:04;19.80;72.80
11264;DHT22;5689;48.798;9.070;2023-06-14T06:23:33;20.00;72.80
11264;DHT22;5689;48.798;9.070;2023-06-14T06:26:03;19.40;73.50
11264;DHT22;5689;48.798;9.070;2023-06-14T06:28:31;19.50;74.50
11264;DHT22;5689;48.798;9.070;2023-06-14T06:30:59;19.50;75.70
11264;DHT22;5689;48.798;9.070;2023-06-14T06:33:28;19.90;74.10
11264;DHT22;5689;48.798;9.070;2023-06-14T06:35:56;20.00;74.30
11264;DHT22;5689;48.798;9.070;2023-06-14T06:38:24;20.00;74.60
11264;DHT22;5689;48.798;9.070;2023-06-14T06:40:54;19.70;74.10
11264;DHT22;5689;48.798;9.070;2023-06-14T06:43:23;20.20;73.30
11264;DHT22;5689;48.798;9.070;2023-06-14T06:45:51;20.80;71.50
11264;DHT22;5689;48.798;9.070;2023-06-14T06:48:19;20.80;72.20
11264;DHT22;5689;48.798;9.070;2023-06-14T06:50:47;20.70;72.40
11264;DHT22;5689;48.798;9.070;2023-06-14T06:53:15;20.60;72.80
11264;DHT22;5689;48.798;9.070;2023-06-14T06:55:46;21.50;69.80
11264;DHT22;5689;48.798;9.070;2023-06-14T06:58:18;21.30;70.60
11264;DHT22;5689;48.798;9.070;2023-06-14T07:00:46;22.50;67.60
11264;DHT22;5689;48.798;9.070;2023-06-14T07:03:14;22.90;67.30
11264;DHT22;5689;48.798;9.070;2023-06-14T07:05:42;22.80;65.00
11264;DHT22;5689;48.798;9.070;2023-06-14T07:08:10;22.60;64.80
11264;DHT22;5689;48.798;9.070;2023-06-14T07:10:38;23.10;64.70
11264;DHT22;5689;48.798;9.070;2023-06-14T07:13:06;23.40;64.60
11264;DHT22;5689;48.798;9.070;2023-06-14T07:15:37;23.40;64.70
11264;DHT22;5689;48.798;9.070;2023-06-14T07:18:05;23.20;64.30
11264;DHT22;5689;48.798;9.070;2023-06-14T07:20:33;23.00;64.90
11264;DHT22;5689;48.798;9.070;2023-06-14T07:23:01;23.80;63.00
11264;DHT22;5689;48.798;9.070;2023-06-14T07:25:29;23.80;62.20
11264;DHT22;5689;48.798;9.070;2023-06-14T07:27:57;24.50;61.40
11264;DHT22;5689;48.798;9.070;2023-06-14T07:30:25;24.40;61.20
11264;DHT22;5689;48.798;9.070;2023-06-14T07:32:55;23.70;62.50
11264;DHT22;5689;48.798;9.070;2023-06-14T07:35:23;23.60;62.90
11264;DHT22;5689;48.798;9.070;2023-06-14T07:37:51;24.50;61.50
11264;DHT22;5689;48.798;9.070;2023-06-14T07:40:19;24.40;62.60
11264;DHT22;5689;48.798;9.070;2023-06-14T07:42:47;25.00;62.80
11264;DHT22;5689;48.798;9.070;2023-06-14T07:45:17;24.70;61.10
11264;DHT22;5689;48.798;9.070;2023-06-14T07:47:46;25.20;60.60
11264;DHT22;5689;48.798;9.070;2023-06-14T07:50:15;23.90;61.40
11264;DHT22;5689;48.798;9.070;2023-06-14T07:52:44;24.00;62.20
11264;DHT22;5689;48.798;9.070;2023-06-14T07:55:13;24.20;60.40
11264;DHT22;5689;48.798;9.070;2023-06-14T07:57:42;24.40;60.50
11264;DHT22;5689;48.798;9.070;2023-06-14T08:00:11;25.00;60.30
11264;DHT22;5689;48.798;9.070;2023-06-14T08:02:42;26.00;57.30
11264;DHT22;5689;48.798;9.070;2023-06-14T08:05:10;26.80;56.40
11264;DHT22;5689;48.798;9.070;2023-06-14T08:07:40;26.30;56.80
11264;DHT22;5689;48.798;9.070;2023-06-14T08:10:08;27.40;56.30
11264;DHT22;5689;48.798;9.070;2023-06-14T08:12:37;27.00;56.90
11264;DHT22;5689;48.798;9.070;2023-06-14T08:15:05;27.10;56.90
11264;DHT22;5689;48.798;9.070;2023-06-14T08:17:45;28.10;54.50
11264;DHT22;5689;48.798;9.070;2023-06-14T08:20:13;28.20;54.40
11264;DHT22;5689;48.798;9.070;2023-06-14T08:22:44;28.00;53.70
11264;DHT22;5689;48.798;9.070;2023-06-14T08:25:13;27.30;56.80
11264;DHT22;5689;48.798;9.070;2023-06-14T08:27:42;27.00;56.70
11264;DHT22;5689;48.798;9.070;2023-06-14T08:30:11;27.70;54.90
11264;DHT22;5689;48.798;9.070;2023-06-14T08:32:39;26.80;56.00
11264;DHT22;5689;48.798;9.070;2023-06-14T08:35:07;27.80;55.00
11264;DHT22;5689;48.798;9.070;2023-06-14T08:37:38;27.60;55.60
11264;DHT22;5689;48.798;9.070;2023-06-14T08:40:17;29.20;53.80
11264;DHT22;5689;48.798;9.070;2023-06-14T08:42:50;28.50;54.30
11264;DHT22;5689;48.798;9.070;2023-06-14T08:45:19;27.90;55.30
11264;DHT22;5689;48.798;9.070;2023-06-14T08:47:50;27.70;55.50
11264;DHT22;5689;48.798;9.070;2023-06-14T08:50:20;26.50;56.30
11264;DHT22;5689;48.798;9.070;2023-06-14T08:52:55;26.80;57.70
11264;DHT22;5689;48.798;9.070;2023-06-14T08:55:25;27.30;56.80
11264;DHT22;5689;48.798;9.070;2023-06-14T08:57:55;27.40;56.80
11264;DHT22;5689;48.798;9.070;2023-06-14T09:00:24;27.80;54.70
11264;DHT22;5689;48.798;9.070;2023-06-14T09:02:53;29.30;53.10
11264;DHT22;5689;48.798;9.070;2023-06-14T09:05:25;28.90;53.90
11264;DHT22;5689;48.798;9.070;2023-06-14T09:07:53;29.70;52.70
11264;DHT22;5689;48.798;9.070;2023-06-14T09:10:25;30.50;51.90
11264;DHT22;5689;48.798;9.070;2023-06-14T09:12:53;29.60;52.40
11264;DHT22;5689;48.798;9.070;2023-06-14T09:15:22;29.90;53.00
11264;DHT22;5689;48.798;9.070;2023-06-14T09:17:50;30.20;52.40
11264;DHT22;5689;48.798;9.070;2023-06-14T09:20:18;29.80;53.30
11264;DHT22;5689;48.798;9.070;2023-06-14T09:22:46;29.40;54.20
11264;DHT22;5689;48.798;9.070;2023-06-14T09:25:14;29.60;53.60
11264;DHT22;5689;48.798;9.070;2023-06-14T09:27:52;30.60;52.40
11264;DHT22;5689;48.798;9.070;2023-06-14T09:30:21;29.50;51.50
11264;DHT22;5689;48.798;9.070;2023-06-14T09:32:48;29.30;52.70
11264;DHT22;5689;48.798;9.070;2023-06-14T09:35:17;30.10;51.30
11264;DHT22;5689;48.798;9.070;2023-06-14T09:37:45;29.20;53.40
11264;DHT22;5689;48.798;9.070;2023-06-14T09:40:20;28.60;53.80
11264;DHT22;5689;48.798;9.070;2023-06-14T09:42:48;29.60;53.40
11264;DHT22;5689;48.798;9.070;2023-06-14T09:45:18;30.60;51.20
11264;DHT22;5689;48.798;9.070;2023-06-14T09:47:49;30.70;50.80
11264;DHT22;5689;48.798;9.070;2023-06-14T09:50:22;30.00;51.50
11264;DHT22;5689;48.798;9.070;2023-06-14T09:52:52;29.70;50.30
11264;DHT22;5689;48.798;9.070;2023-06-14T09:55:28;30.00;51.10
11264;DHT22;5689;48.798;9.070;2023-06-14T09:58:00;28.80;51.60
11264;DHT22;5689;48.798;9.070;2023-06-14T10:00:30;31.00;49.90
11264;DHT22;5689;48.798;9.070;2023-06-14T10:03:06;30.90;50.90
11264;DHT22;5689;48.798;9.070;2023-06-14T10:05:34;30.90;49.40
11264;DHT22;5689;48.798;9.070;2023-06-14T10:08:07;31.80;48.20
11264;DHT22;5689;48.798;9.070;2023-06-14T10:10:36;30.30;50.50
11264;DHT22;5689;48.798;9.070;2023-06-14T10:13:06;30.50;49.20
11264;DHT22;5689;48.798;9.070;2023-06-14T10:15:43;31.70;48.50
11264;DHT22;5689;48.798;9.070;2023-06-14T10:18:19;30.20;46.80
11264;DHT22;5689;48.798;9.070;2023-06-14T10:20:58;30.00;46.20
11264;DHT22;5689;48.798;9.070;2023-06-14T10:23:29;30.40;45.40
11264;DHT22;5689;48.798;9.070;2023-06-14T10:25:57;31.60;45.60
11264;DHT22;5689;48.798;9.070;2023-06-14T10:28:26;29.50;48.50
11264;DHT22;5689;48.798;9.070;2023-06-14T10:31:05;27.90;49.60
11264;DHT22;5689;48.798;9.070;2023-06-14T10:33:34;26.70;51.20
11264;DHT22;5689;48.798;9.070;2023-06-14T10:36:25;26.20;52.10
11264;DHT22;5689;48.798;9.070;2023-06-14T10:38:57;27.40;51.40
11264;DHT22;5689;48.798;9.070;2023-06-14T10:41:27;31.10;47.40
11264;DHT22;5689;48.798;9.070;2023-06-14T10:47:00;31.70;46.70
11264;DHT22;5689;48.798;9.070;2023-06-14T10:49:41;30.60;48.60
11264;DHT22;5689;48.798;9.070;2023-06-14T10:52:11;31.90;46.80
11264;DHT22;5689;48.798;9.070;2023-06-14T10:55:01;33.80;43.70
11264;DHT22;5689;48.798;9.070;2023-06-14T10:57:31;34.40;42.70
11264;DHT22;5689;48.798;9.070;2023-06-14T11:00:03;33.20;43.00
11264;DHT22;5689;48.798;9.070;2023-06-14T11:05:50;31.90;43.60
11264;DHT22;5689;48.798;9.070;2023-06-14T11:08:27;31.80;45.00
11264;DHT22;5689;48.798;9.070;2023-06-14T11:11:06;31.40;45.70
11264;DHT22;5689;48.798;9.070;2023-06-14T11:13:36;32.80;44.90
11264;DHT22;5689;48.798;9.070;2023-06-14T11:16:10;33.00;43.40
11264;DHT22;5689;48.798;9.070;2023-06-14T11:18:41;31.40;46.00
11264;DHT22;5689;48.798;9.070;2023-06-14T11:21:09;30.70;45.20
11264;DHT22;5689;48.798;9.070;2023-06-14T11:23:37;31.80;44.50
11264;DHT22;5689;48.798;9.070;2023-06-14T11:26:05;31.60;44.60
11264;DHT22;5689;48.798;9.070;2023-06-14T11:28:37;31.70;44.40
11264;DHT22;5689;48.798;9.070;2023-06-14T11:31:06;31.90;43.30
11264;DHT22;5689;48.798;9.070;2023-06-14T11:33:34;33.20;43.40
11264;DHT22;5689;48.798;9.070;2023-06-14T11:36:05;32.80;43.20
11264;DHT22;5689;48.798;9.070;2023-06-14T11:38:35;32.90;42.80
11264;DHT22;5689;48.798;9.070;2023-06-14T11:41:04;32.30;43.10
11264;DHT22;5689;48.798;9.070;2023-06-14T11:43:32;33.40;42.70
11264;DHT22;5689;48.798;9.070;2023-06-14T11:46:02;30.90;44.60
11264;DHT22;5689;48.798;9.070;2023-06-14T11:48:37;32.30;43.20
11264;DHT22;5689;48.798;9.070;2023-06-14T11:51:09;32.10;43.60
11264;DHT22;5689;48.798;9.070;2023-06-14T11:53:38;34.00;41.80
11264;DHT22;5689;48.798;9.070;2023-06-14T11:56:06;36.20;39.80
11264;DHT22;5689;48.798;9.070;2023-06-14T11:58:34;36.10;40.00
11264;DHT22;5689;48.798;9.070;2023-06-14T12:01:03;35.90;38.60
11264;DHT22;5689;48.798;9.070;2023-06-14T12:03:31;32.90;41.50
11264;DHT22;5689;48.798;9.070;2023-06-14T12:06:03;30.20;43.70
11264;DHT22;5689;48.798;9.070;2023-06-14T12:08:37;29.20;46.10
11264;DHT22;5689;48.798;9.070;2023-06-14T12:11:10;28.30;46.80
11264;DHT22;5689;48.798;9.070;2023-06-14T12:13:39;30.30;46.10
11264;DHT22;5689;48.798;9.070;2023-06-14T12:16:08;32.30;43.40
11264;DHT22;5689;48.798;9.070;2023-06-14T12:18:37;32.40;43.30
11264;DHT22;5689;48.798;9.070;2023-06-14T12:21:06;32.50;43.30
11264;DHT22;5689;48.798;9.070;2023-06-14T12:23:45;31.40;44.00
11264;DHT22;5689;48.798;9.070;2023-06-14T12:26:14;31.40;44.70
11264;DHT22;5689;48.798;9.070;2023-06-14T12:28:44;32.20;44.20
11264;DHT22;5689;48.798;9.070;2023-06-14T12:31:15;32.00;44.50
11264;DHT22;5689;48.798;9.070;2023-06-14T12:33:43;31.60;45.00
11264;DHT22;5689;48.798;9.070;2023-06-14T12:36:12;31.60;44.40
11264;DHT22;5689;48.798;9.070;2023-06-14T12:38:41;33.90;42.30
11264;DHT22;5689;48.798;9.070;2023-06-14T12:41:10;35.80;39.60
11264;DHT22;5689;48.798;9.070;2023-06-14T12:43:38;32.60;43.10
11264;DHT22;5689;48.798;9.070;2023-06-14T12:46:06;34.80;41.00
11264;DHT22;5689;48.798;9.070;2023-06-14T12:48:34;33.00;41.90
11264;DHT22;5689;48.798;9.070;2023-06-14T12:51:02;31.60;44.10
11264;DHT22;5689;48.798;9.070;2023-06-14T12:53:30;32.30;43.80
11264;DHT22;5689;48.798;9.070;2023-06-14T12:55:58;33.00;42.60
11264;DHT22;5689;48.798;9.070;2023-06-14T12:58:27;34.80;40.50
11264;DHT22;5689;48.798;9.070;2023-06-14T13:00:55;35.90;40.20
11264;DHT22;5689;48.798;9.070;2023-06-14T13:03:24;33.80;41.00
11264;DHT22;5689;48.798;9.070;2023-06-14T13:05:52;35.00;40.50
11264;DHT22;5689;48.798;9.070;2023-06-14T13:08:19;33.20;40.50
11264;DHT22;5689;48.798;9.070;2023-06-14T13:10:50;29.40;44.80
11264;DHT22;5689;48.798;9.070;2023-06-14T13:13:18;30.00;45.60
11264;DHT22;5689;48.798;9.070;2023-06-14T13:15:47;32.40;42.20
11264;DHT22;5689;48.798;9.070;2023-06-14T13:18:16;33.40;41.90
11264;DHT22;5689;48.798;9.070;2023-06-14T13:20:45;32.10;43.10
11264;DHT22;5689;48.798;9.070;2023-06-14T13:23:15;33.30;41.40
11264;DHT22;5689;48.798;9.070;2023-06-14T13:25:43;33.00;42.00
11264;DHT22;5689;48.798;9.070;2023-06-14T13:28:11;33.30;42.10
11264;DHT22;5689;48.798;9.070;2023-06-14T13:30:49;35.80;39.50
11264;DHT22;5689;48.798;9.070;2023-06-14T13:33:22;34.60;40.40
11264;DHT22;5689;48.798;9.070;2023-06-14T13:35:52;35.40;40.30
11264;DHT22;5689;48.798;9.070;2023-06-14T13:38:20;33.00;41.70
11264;DHT22;5689;48.798;9.070;2023-06-14T13:40:48;35.00;40.00
11264;DHT22;5689;48.798;9.070;2023-06-14T13:43:17;34.90;40.50
11264;DHT22;5689;48.798;9.070;2023-06-14T13:45:45;33.10;42.10
11264;DHT22;5689;48.798;9.070;2023-06-14T13:48:14;33.20;42.30
11264;DHT22;5689;48.798;9.070;2023-06-14T13:50:42;33.00;42.10
11264;DHT22;5689;48.798;9.070;2023-06-14T13:53:11;32.60;42.30
11264;DHT22;5689;48.798;9.070;2023-06-14T13:55:41;33.20;42.20
11264;DHT22;5689;48.798;9.070;2023-06-14T13:58:10;36.60;38.80
11264;DHT22;5689;48.798;9.070;2023-06-14T14:00:38;36.00;39.30
11264;DHT22;5689;48.798;9.070;2023-06-14T14:03:07;36.40;38.30
11264;DHT22;5689;48.798;9.070;2023-06-14T14:05:37;33.70;41.20
11264;DHT22;5689;48.798;9.070;2023-06-14T14:08:06;34.30;40.10
11264;DHT22;5689;48.798;9.070;2023-06-14T14:10:34;32.70;41.40
11264;DHT22;5689;48.798;9.070;2023-06-14T14:13:02;31.70;43.00
11264;DHT22;5689;48.798;9.070;2023-06-14T14:15:30;31.30;43.70
11264;DHT22;5689;48.798;9.070;2023-06-14T14:18:01;32.90;43.20
11264;DHT22;5689;48.798;9.070;2023-06-14T14:20:30;33.10;43.00
11264;DHT22;5689;48.798;9.070;2023-06-14T14:22:59;33.90;41.90
11264;DHT22;5689;48.798;9.070;2023-06-14T14:25:28;31.80;44.90
11264;DHT22;5689;48.798;9.070;2023-06-14T14:27:56;31.80;44.70
11264;DHT22;5689;48.798;9.070;2023-06-14T14:30:24;32.30;43.80
11264;DHT22;5689;48.798;9.070;2023-06-14T14:32:52;31.80;44.40
11264;DHT22;5689;48.798;9.070;2023-06-14T14:35:21;34.40;41.60
11264;DHT22;5689;48.798;9.070;2023-06-14T14:37:51;30.40;44.80
11264;DHT22;5689;48.798;9.070;2023-06-14T14:40:21;30.30;46.20
11264;DHT22;5689;48.798;9.070;2023-06-14T14:42:49;31.00;44.80
11264;DHT22;5689;48.798;9.070;2023-06-14T14:45:17;29.10;46.00
11264;DHT22;5689;48.798;9.070;2023-06-14T14:47:45;28.30;48.10
11264;DHT22;5689;48.798;9.070;2023-06-14T14:50:13;27.70;49.60
11264;DHT22;5689;48.798;9.070;2023-06-14T14:52:41;28.00;49.30
11264;DHT22;5689;48.798;9.070;2023-06-14T14:55:09;26.80;50.30
11264;DHT22;5689;48.798;9.070;2023-06-14T14:57:39;26.40;51.40
11264;DHT22;5689;48.798;9.070;2023-06-14T15:00:08;27.50;50.10
11264;DHT22;5689;48.798;9.070;2023-06-14T15:02:36;28.10;49.70
11264;DHT22;5689;48.798;9.070;2023-06-14T15:05:04;28.10;49.60
11264;DHT22;5689;48.798;9.070;2023-06-14T15:07:32;27.30;50.80
11264;DHT22;5689;48.798;9.070;2023-06-14T15:10:00;27.70;50.00
11264;DHT22;5689;48.798;9.070;2023-06-14T15:12:29;28.40;48.60
11264;DHT22;5689;48.798;9.070;2023-06-14T15:14:58;27.60;48.70
11264;DHT22;5689;48.798;9.070;2023-06-14T15:17:26;27.10;50.40
11264;DHT22;5689;48.798;9.070;2023-06-14T15:19:54;27.10;50.40
11264;DHT22;5689;48.798;9.070;2023-06-14T15:22:22;27.20;50.20
11264;DHT22;5689;48.798;9.070;2023-06-14T15:24:51;27.10;51.20
11264;DHT22;5689;48.798;9.070;2023-06-14T15:27:19;27.20;50.30
11264;DHT22;5689;48.798;9.070;2023-06-14T15:29:47;27.20;50.20
11264;DHT22;5689;48.798;9.070;2023-06-14T15:32:18;27.80;48.70
11264;DHT22;5689;48.798;9.070;2023-06-14T15:34:47;27.10;50.00
11264;DHT22;5689;48.798;9.070;2023-06-14T15:37:16;27.10;49.90
11264;DHT22;5689;48.798;9.070;2023-06-14T15:39:44;27.20;49.60
11264;DHT22;5689;48.798;9.070;2023-06-14T15:42:12;27.40;50.00
11264;DHT22;5689;48.798;9.070;2023-06-14T15:44:40;27.40;50.50
11264;DHT22;5689;48.798;9.070;2023-06-14T15:47:08;27.20;50.10
11264;DHT22;5689;48.798;9.070;2023-06-14T15:49:38;26.80;50.50
11264;DHT22;5689;48.798;9.070;2023-06-14T15:52:07;27.40;49.90
11264;DHT22;5689;48.798;9.070;2023-06-14T15:54:35;26.80;50.20
11264;DHT22;5689;48.798;9.070;2023-06-14T15:57:03;26.20;51.50
11264;DHT22;5689;48.798;9.070;2023-06-14T15:59:31;26.60;51.50
11264;DHT22;5689;48.798;9.070;2023-06-14T16:01:59;26.70;50.90
11264;DHT22;5689;48.798;9.070;2023-06-14T16:04:27;26.60;51.00
11264;DHT22;5689;48.798;9.070;2023-06-14T16:06:57;26.70;51.00